sensor_id;sensor_type;location;lat;lon;timestamp;pressure;altitude;pressure_sealevel;temperature;humidity
39435;BME280;30098;51.880;-0.518;2022-08-23T00:00:27;100290.53;;;24.37;43.67
39435;BME280;30098;51.880;-0.518;2022-08-23T00:02:53;100283.84;;;24.38;43.55
39435;BME280;30098;51.880;-0.518;2022-08-23T00:05:18;100263.03;;;24.24;43.78
39435;BME280;30098;51.880;-0.518;2022-08-23T00:07:44;100275.47;;;24.34;43.60
39435;BME280;30098;51.880;-0.518;2022-08-23T00:10:14;100288.09;;;24.35;43.31
39435;BME280;30098;51.880;-0.518;2022-08-23T00:12:41;100283.75;;;24.34;43.51
39435;BME280;30098;51.880;-0.518;2022-08-23T00:15:08;100285.69;;;24.34;43.70
39435;BME280;30098;51.880;-0.518;2022-08-23T00:17:35;100291.22;;;24.34;43.44
39435;BME280;30098;51.880;-0.518;2022-08-23T00:20:04;100295.09;;;24.33;43.59
39435;BME280;30098;51.880;-0.518;2022-08-23T00:22:30;100265.16;;;24.15;43.78
39435;BME280;30098;51.880;-0.518;2022-08-23T00:24:56;100287.22;;;24.31;43.38
39435;BME280;30098;51.880;-0.518;2022-08-23T00:27:21;100295.47;;;24.31;43.71
39435;BME280;30098;51.880;-0.518;2022-08-23T00:29:52;100290.66;;;24.28;43.61
39435;BME280;30098;51.880;-0.518;2022-08-23T00:32:22;100291.09;;;24.30;43.63
39435;BME280;30098;51.880;-0.518;2022-08-23T00:34:49;100297.41;;;24.31;43.49
39435;BME280;30098;51.880;-0.518;2022-08-23T00:37:15;100307.97;;;24.29;43.49
39435;BME280;30098;51.880;-0.518;2022-08-23T00:39:42;100300.88;;;24.27;43.51
39435;BME280;30098;51.880;-0.518;2022-08-23T00:42:55;100292.63;;;24.27;43.83
39435;BME280;30098;51.880;-0.518;2022-08-23T00:45:26;100283.00;;;24.21;43.60
39435;BME280;30098;51.880;-0.518;2022-08-23T00:48:11;100291.78;;;24.27;43.67
39435;BME280;30098;51.880;-0.518;2022-08-23T00:50:48;100298.81;;;24.24;43.49
39435;BME280;30098;51.880;-0.518;2022-08-23T00:53:21;100305.13;;;24.25;43.71
39435;BME280;30098;51.880;-0.518;2022-08-23T00:55:50;100300.78;;;24.24;43.58
39435;BME280;30098;51.880;-0.518;2022-08-23T00:58:18;100300.78;;;24.24;43.59
39435;BME280;30098;51.880;-0.518;2022-08-23T01:00:45;100293.66;;;24.23;43.64
39435;BME280;30098;51.880;-0.518;2022-08-23T01:03:11;100285.41;;;24.23;43.98
39435;BME280;30098;51.880;-0.518;2022-08-23T01:06:02;100287.38;;;24.22;43.69
39435;BME280;30098;51.880;-0.518;2022-08-23T01:08:32;100247.31;;;23.97;43.49
39435;BME280;30098;51.880;-0.518;2022-08-23T01:11:03;100290.13;;;24.22;43.78
39435;BME280;30098;51.880;-0.518;2022-08-23T01:13:42;100276.69;;;24.21;43.89
39435;BME280;30098;51.880;-0.518;2022-08-23T01:16:16;100278.66;;;24.20;43.88
39435;BME280;30098;51.880;-0.518;2022-08-23T01:18:44;100274.28;;;24.19;43.76
39435;BME280;30098;51.880;-0.518;2022-08-23T01:23:44;100286.09;;;24.20;43.63
39435;BME280;30098;51.880;-0.518;2022-08-23T01:26:10;100272.31;;;24.20;43.73
39435;BME280;30098;51.880;-0.518;2022-08-23T01:28:38;100279.00;;;24.19;43.53
39435;BME280;30098;51.880;-0.518;2022-08-23T01:31:05;100281.31;;;24.17;43.67
39435;BME280;30098;51.880;-0.518;2022-08-23T01:33:32;100282.34;;;24.12;43.69
39435;BME280;30098;51.880;-0.518;2022-08-23T01:35:58;100281.19;;;24.13;43.93
39435;BME280;30098;51.880;-0.518;2022-08-23T01:38:24;100291.50;;;24.16;43.67
39435;BME280;30098;51.880;-0.518;2022-08-23T01:40:50;100289.91;;;24.15;43.67
39435;BME280;30098;51.880;-0.518;2022-08-23T01:43:18;100294.59;;;24.15;43.84
39435;BME280;30098;51.880;-0.518;2022-08-23T01:45:45;100293.81;;;24.14;43.58
39435;BME280;30098;51.880;-0.518;2022-08-23T01:48:11;100288.88;;;24.07;43.53
39435;BME280;30098;51.880;-0.518;2022-08-23T01:50:36;100309.50;;;24.14;43.61
39435;BME280;30098;51.880;-0.518;2022-08-23T01:53:02;100301.25;;;24.14;43.70
39435;BME280;30098;51.880;-0.518;2022-08-23T01:55:29;100315.81;;;24.14;43.56
39435;BME280;30098;51.880;-0.518;2022-08-23T01:57:57;100313.06;;;24.14;43.76
39435;BME280;30098;51.880;-0.518;2022-08-23T02:00:28;100310.22;;;24.10;43.81
39435;BME280;30098;51.880;-0.518;2022-08-23T02:02:55;100304.34;;;24.12;43.61
39435;BME280;30098;51.880;-0.518;2022-08-23T02:05:21;100301.97;;;24.10;43.60
39435;BME280;30098;51.880;-0.518;2022-08-23T02:07:47;100307.47;;;24.10;43.85
39435;BME280;30098;51.880;-0.518;2022-08-23T02:10:13;100300.81;;;24.12;43.83
39435;BME280;30098;51.880;-0.518;2022-08-23T02:12:38;100309.41;;;24.10;43.81
39435;BME280;30098;51.880;-0.518;2022-08-23T02:15:05;100304.72;;;24.10;43.86
39435;BME280;30098;51.880;-0.518;2022-08-23T02:17:31;100304.72;;;24.10;43.61
39435;BME280;30098;51.880;-0.518;2022-08-23T02:19:56;100303.91;;;24.10;43.88
39435;BME280;30098;51.880;-0.518;2022-08-23T02:22:22;100297.59;;;24.09;43.77
39435;BME280;30098;51.880;-0.518;2022-08-23T02:24:48;100294.38;;;24.07;43.91
39435;BME280;30098;51.880;-0.518;2022-08-23T02:27:14;100295.22;;;24.08;43.64
39435;BME280;30098;51.880;-0.518;2022-08-23T02:29:42;100285.69;;;24.05;43.63
39435;BME280;30098;51.880;-0.518;2022-08-23T02:32:10;100301.50;;;24.08;43.86
39435;BME280;30098;51.880;-0.518;2022-08-23T02:34:36;100298.66;;;24.05;43.65
39435;BME280;30098;51.880;-0.518;2022-08-23T02:37:02;100301.50;;;24.08;43.87
39435;BME280;30098;51.880;-0.518;2022-08-23T02:39:27;100287.78;;;23.96;43.58
39435;BME280;30098;51.880;-0.518;2022-08-23T02:41:53;100306.53;;;24.06;43.66
39435;BME280;30098;51.880;-0.518;2022-08-23T02:44:19;100285.22;;;23.91;43.69
39435;BME280;30098;51.880;-0.518;2022-08-23T02:46:45;100289.38;;;23.97;43.95
39435;BME280;30098;51.880;-0.518;2022-08-23T02:49:12;100297.50;;;24.06;43.56
39435;BME280;30098;51.880;-0.518;2022-08-23T02:51:38;100300.59;;;24.04;43.59
39435;BME280;30098;51.880;-0.518;2022-08-23T02:54:05;100311.63;;;24.04;43.63
39435;BME280;30098;51.880;-0.518;2022-08-23T02:56:31;100303.38;;;24.04;43.51
39435;BME280;30098;51.880;-0.518;2022-08-23T02:58:58;100302.53;;;24.04;43.51
39435;BME280;30098;51.880;-0.518;2022-08-23T03:01:26;100310.00;;;24.03;43.93
39435;BME280;30098;51.880;-0.518;2022-08-23T03:03:53;100310.00;;;24.03;43.58
39435;BME280;30098;51.880;-0.518;2022-08-23T03:06:19;100315.50;;;24.03;43.67
39435;BME280;30098;51.880;-0.518;2022-08-23T03:08:44;100311.94;;;24.03;43.55
39435;BME280;30098;51.880;-0.518;2022-08-23T03:11:15;100301.88;;;23.94;43.84
39435;BME280;30098;51.880;-0.518;2022-08-23T03:13:41;100315.84;;;24.02;43.73
39435;BME280;30098;51.880;-0.518;2022-08-23T03:16:08;100314.25;;;24.01;43.52
39435;BME280;30098;51.880;-0.518;2022-08-23T03:18:35;100222.53;;;23.43;43.76
39435;BME280;30098;51.880;-0.518;2022-08-23T03:21:02;100311.50;;;24.01;43.63
39435;BME280;30098;51.880;-0.518;2022-08-23T03:23:28;100278.72;;;23.83;43.74
39435;BME280;30098;51.880;-0.518;2022-08-23T03:25:58;100221.28;;;23.41;43.73
39435;BME280;30098;51.880;-0.518;2022-08-23T03:28:26;100305.19;;;24.00;43.61
39435;BME280;30098;51.880;-0.518;2022-08-23T03:30:52;100298.06;;;23.99;43.88
39435;BME280;30098;51.880;-0.518;2022-08-23T03:33:18;100300.03;;;23.99;43.89
39435;BME280;30098;51.880;-0.518;2022-08-23T03:35:44;100299.94;;;23.95;43.67
39435;BME280;30098;51.880;-0.518;2022-08-23T03:38:10;100286.41;;;23.90;43.77
39435;BME280;30098;51.880;-0.518;2022-08-23T03:40:36;100301.97;;;23.98;43.85
39435;BME280;30098;51.880;-0.518;2022-08-23T03:43:02;100303.94;;;23.98;43.82
39435;BME280;30098;51.880;-0.518;2022-08-23T03:45:29;100309.44;;;23.98;43.72
39435;BME280;30098;51.880;-0.518;2022-08-23T03:47:54;100316.91;;;23.97;43.92
39435;BME280;30098;51.880;-0.518;2022-08-23T03:50:20;100311.41;;;23.97;43.86
39435;BME280;30098;51.880;-0.518;2022-08-23T03:52:46;100307.22;;;23.91;43.86
39435;BME280;30098;51.880;-0.518;2022-08-23T03:55:13;100318.06;;;23.96;43.73
39435;BME280;30098;51.880;-0.518;2022-08-23T03:57:38;100292.13;;;23.85;43.54
39435;BME280;30098;51.880;-0.518;2022-08-23T04:00:06;100304.97;;;23.93;43.71
39435;BME280;30098;51.880;-0.518;2022-08-23T04:02:33;100299.94;;;23.95;43.80
39435;BME280;30098;51.880;-0.518;2022-08-23T04:04:58;100301.88;;;23.94;43.90
39435;BME280;30098;51.880;-0.518;2022-08-23T04:07:25;100305.44;;;23.95;43.75
39435;BME280;30098;51.880;-0.518;2022-08-23T04:09:51;100289.03;;;23.86;43.90
39435;BME280;30098;51.880;-0.518;2022-08-23T04:12:16;100312.09;;;23.94;43.80
39435;BME280;30098;51.880;-0.518;2022-08-23T04:14:42;100309.34;;;23.94;43.59
39435;BME280;30098;51.880;-0.518;2022-08-23T04:17:09;100305.66;;;23.90;44.12
39435;BME280;30098;51.880;-0.518;2022-08-23T04:19:34;100323.09;;;23.94;43.73
39435;BME280;30098;51.880;-0.518;2022-08-23T04:22:00;100311.59;;;23.92;43.81
39435;BME280;30098;51.880;-0.518;2022-08-23T04:24:26;100315.50;;;23.91;43.56
39435;BME280;30098;51.880;-0.518;2022-08-23T04:26:51;100325.34;;;23.92;43.79
39435;BME280;30098;51.880;-0.518;2022-08-23T04:29:17;100319.84;;;23.92;43.54
39435;BME280;30098;51.880;-0.518;2022-08-23T04:31:43;100323.75;;;23.91;43.85
39435;BME280;30098;51.880;-0.518;2022-08-23T04:34:09;100315.72;;;23.86;43.93
39435;BME280;30098;51.880;-0.518;2022-08-23T04:36:39;100318.84;;;23.84;43.95
39435;BME280;30098;51.880;-0.518;2022-08-23T04:39:05;100325.69;;;23.90;44.01
39435;BME280;30098;51.880;-0.518;2022-08-23T04:41:31;100330.41;;;23.90;43.88
39435;BME280;30098;51.880;-0.518;2022-08-23T04:44:15;100234.69;;;23.30;43.69
39435;BME280;30098;51.880;-0.518;2022-08-23T04:46:41;100329.59;;;23.89;43.63
39435;BME280;30098;51.880;-0.518;2022-08-23T04:49:09;100329.94;;;23.88;43.86
39435;BME280;30098;51.880;-0.518;2022-08-23T04:51:35;100329.94;;;23.88;43.69
39435;BME280;30098;51.880;-0.518;2022-08-23T04:54:01;100330.75;;;23.88;43.86
39435;BME280;30098;51.880;-0.518;2022-08-23T04:56:27;100342.88;;;23.87;43.80
39435;BME280;30098;51.880;-0.518;2022-08-23T04:58:52;100333.38;;;23.85;43.71
39435;BME280;30098;51.880;-0.518;2022-08-23T05:01:19;100340.97;;;23.88;43.91
39435;BME280;30098;51.880;-0.518;2022-08-23T05:03:44;100327.09;;;23.84;43.83
39435;BME280;30098;51.880;-0.518;2022-08-23T05:06:10;100334.53;;;23.84;43.87
39435;BME280;30098;51.880;-0.518;2022-08-23T05:08:36;100340.97;;;23.88;43.81
39435;BME280;30098;51.880;-0.518;2022-08-23T05:11:05;100333.16;;;23.77;43.88
39435;BME280;30098;51.880;-0.518;2022-08-23T05:13:31;100348.75;;;23.86;43.90
39435;BME280;30098;51.880;-0.518;2022-08-23T05:15:57;100351.50;;;23.86;43.81
39435;BME280;30098;51.880;-0.518;2022-08-23T05:18:23;100343.59;;;23.84;43.98
39435;BME280;30098;51.880;-0.518;2022-08-23T05:20:49;100345.19;;;23.85;43.86
39435;BME280;30098;51.880;-0.518;2022-08-23T05:23:14;100310.34;;;23.64;43.68
39435;BME280;30098;51.880;-0.518;2022-08-23T05:25:40;100330.31;;;23.74;43.81
39435;BME280;30098;51.880;-0.518;2022-08-23T05:28:31;100350.72;;;23.85;43.78
39435;BME280;30098;51.880;-0.518;2022-08-23T05:33:25;100365.59;;;23.84;43.77
39435;BME280;30098;51.880;-0.518;2022-08-23T05:35:51;100372.25;;;23.83;43.58
39435;BME280;30098;51.880;-0.518;2022-08-23T05:38:17;100359.88;;;23.77;44.01
39435;BME280;30098;51.880;-0.518;2022-08-23T05:40:43;100367.88;;;23.82;43.64
39435;BME280;30098;51.880;-0.518;2022-08-23T05:43:09;100360.56;;;23.74;43.98
39435;BME280;30098;51.880;-0.518;2022-08-23T05:45:35;100372.59;;;23.82;43.79
39435;BME280;30098;51.880;-0.518;2022-08-23T05:48:00;100376.50;;;23.81;44.08
39435;BME280;30098;51.880;-0.518;2022-08-23T05:50:26;100291.16;;;23.27;43.79
39435;BME280;30098;51.880;-0.518;2022-08-23T05:52:51;100377.28;;;23.81;43.93
39435;BME280;30098;51.880;-0.518;2022-08-23T05:55:17;100376.50;;;23.81;43.85
39435;BME280;30098;51.880;-0.518;2022-08-23T05:57:43;100374.53;;;23.81;43.91
39435;BME280;30098;51.880;-0.518;2022-08-23T06:00:09;100377.28;;;23.81;43.68
39435;BME280;30098;51.880;-0.518;2022-08-23T06:02:38;100373.75;;;23.81;43.89
39435;BME280;30098;51.880;-0.518;2022-08-23T06:05:04;100370.16;;;23.80;43.85
39435;BME280;30098;51.880;-0.518;2022-08-23T06:07:29;100374.88;;;23.79;43.70
39435;BME280;30098;51.880;-0.518;2022-08-23T06:09:55;100353.22;;;23.66;43.84
39435;BME280;30098;51.880;-0.518;2022-08-23T06:12:22;100367.78;;;23.78;43.96
39435;BME280;30098;51.880;-0.518;2022-08-23T06:14:47;100362.28;;;23.78;43.75
39435;BME280;30098;51.880;-0.518;2022-08-23T06:17:12;100365.03;;;23.78;43.70
39435;BME280;30098;51.880;-0.518;2022-08-23T06:19:38;100355.41;;;23.72;43.83
39435;BME280;30098;51.880;-0.518;2022-08-23T06:22:04;100361.50;;;23.78;43.95
39435;BME280;30098;51.880;-0.518;2022-08-23T06:24:29;100331.34;;;23.57;43.85
39435;BME280;30098;51.880;-0.518;2022-08-23T06:26:55;100360.66;;;23.77;43.78
39435;BME280;30098;51.880;-0.518;2022-08-23T06:29:20;100368.13;;;23.77;43.91
39435;BME280;30098;51.880;-0.518;2022-08-23T06:31:49;100366.16;;;23.77;43.82
39435;BME280;30098;51.880;-0.518;2022-08-23T06:34:21;100373.63;;;23.77;43.93
39435;BME280;30098;51.880;-0.518;2022-08-23T06:36:54;100375.56;;;23.76;43.72
39435;BME280;30098;51.880;-0.518;2022-08-23T06:39:27;100381.88;;;23.77;43.70
39435;BME280;30098;51.880;-0.518;2022-08-23T06:42:00;100386.91;;;23.75;43.95
39435;BME280;30098;51.880;-0.518;2022-08-23T06:44:26;100390.47;;;23.75;43.82
39435;BME280;30098;51.880;-0.518;2022-08-23T06:46:52;100394.03;;;23.76;43.89
39435;BME280;30098;51.880;-0.518;2022-08-23T06:49:20;100392.41;;;23.75;43.68
39435;BME280;30098;51.880;-0.518;2022-08-23T06:51:50;100377.53;;;23.63;43.70
39435;BME280;30098;51.880;-0.518;2022-08-23T06:54:19;100362.72;;;23.56;44.00
39435;BME280;30098;51.880;-0.518;2022-08-23T06:56:45;100367.88;;;23.57;43.74
39435;BME280;30098;51.880;-0.518;2022-08-23T06:59:11;100307.84;;;23.22;43.85
39435;BME280;30098;51.880;-0.518;2022-08-23T07:01:47;100394.50;;;23.78;43.97
39435;BME280;30098;51.880;-0.518;2022-08-23T07:04:16;100385.88;;;23.79;44.15
39435;BME280;30098;51.880;-0.518;2022-08-23T07:06:42;100360.91;;;23.60;44.94
39435;BME280;30098;51.880;-0.518;2022-08-23T07:09:08;100390.72;;;23.83;45.54
39435;BME280;30098;51.880;-0.518;2022-08-23T07:11:34;100393.56;;;23.86;45.89
39435;BME280;30098;51.880;-0.518;2022-08-23T07:14:03;100359.06;;;23.64;45.23
39435;BME280;30098;51.880;-0.518;2022-08-23T07:16:56;100388.19;;;23.90;45.75
39435;BME280;30098;51.880;-0.518;2022-08-23T07:19:26;100393.34;;;23.91;46.22
39435;BME280;30098;51.880;-0.518;2022-08-23T07:21:52;100399.34;;;23.93;46.13
39435;BME280;30098;51.880;-0.518;2022-08-23T07:24:18;100397.38;;;23.94;46.40
39435;BME280;30098;51.880;-0.518;2022-08-23T07:26:45;100395.88;;;23.97;46.45
39435;BME280;30098;51.880;-0.518;2022-08-23T07:29:12;100401.84;;;23.99;46.40
39435;BME280;30098;51.880;-0.518;2022-08-23T07:31:57;100409.75;;;24.00;46.21
39435;BME280;30098;51.880;-0.518;2022-08-23T07:34:23;100400.34;;;24.01;46.36
39435;BME280;30098;51.880;-0.518;2022-08-23T07:36:52;100402.75;;;24.03;46.18
39435;BME280;30098;51.880;-0.518;2022-08-23T07:39:19;100402.41;;;24.04;46.53
39435;BME280;30098;51.880;-0.518;2022-08-23T07:41:45;100275.22;;;23.21;46.29
39435;BME280;30098;51.880;-0.518;2022-08-23T07:44:11;100353.56;;;23.76;46.52
39435;BME280;30098;51.880;-0.518;2022-08-23T07:46:39;100405.59;;;24.06;46.70
39435;BME280;30098;51.880;-0.518;2022-08-23T07:49:06;100410.78;;;24.08;46.97
39435;BME280;30098;51.880;-0.518;2022-08-23T07:51:33;100411.13;;;24.06;46.76
39435;BME280;30098;51.880;-0.518;2022-08-23T07:54:05;100409.63;;;24.09;46.48
39435;BME280;30098;51.880;-0.518;2022-08-23T07:56:31;100372.00;;;23.88;46.94
39435;BME280;30098;51.880;-0.518;2022-08-23T07:58:57;100388.44;;;23.97;47.07
39435;BME280;30098;51.880;-0.518;2022-08-23T08:01:27;100409.97;;;24.07;47.34
39435;BME280;30098;51.880;-0.518;2022-08-23T08:03:56;100420.72;;;24.13;47.24
39435;BME280;30098;51.880;-0.518;2022-08-23T08:08:56;100430.59;;;24.14;47.06
39435;BME280;30098;51.880;-0.518;2022-08-23T08:11:24;100431.41;;;24.14;47.30
39435;BME280;30098;51.880;-0.518;2022-08-23T08:13:51;100410.47;;;23.97;47.14
39435;BME280;30098;51.880;-0.518;2022-08-23T08:16:35;100348.31;;;23.59;47.39
39435;BME280;30098;51.880;-0.518;2022-08-23T08:19:03;100424.75;;;24.03;47.38
39435;BME280;30098;51.880;-0.518;2022-08-23T08:21:31;100442.84;;;24.16;47.20
39435;BME280;30098;51.880;-0.518;2022-08-23T08:23:57;100447.22;;;24.17;47.17
39435;BME280;30098;51.880;-0.518;2022-08-23T08:26:23;100453.88;;;24.16;47.55
39435;BME280;30098;51.880;-0.518;2022-08-23T08:28:49;100456.63;;;24.16;47.33
39435;BME280;30098;51.880;-0.518;2022-08-23T08:31:16;100448.59;;;24.11;47.31
39435;BME280;30098;51.880;-0.518;2022-08-23T08:33:42;100427.19;;;24.04;47.69
39435;BME280;30098;51.880;-0.518;2022-08-23T08:36:08;100457.91;;;24.19;47.39
39435;BME280;30098;51.880;-0.518;2022-08-23T08:38:51;100448.47;;;24.20;47.18
39435;BME280;30098;51.880;-0.518;2022-08-23T08:41:20;100455.59;;;24.21;47.40
39435;BME280;30098;51.880;-0.518;2022-08-23T08:44:22;100452.94;;;24.24;47.79
39435;BME280;30098;51.880;-0.518;2022-08-23T08:46:50;100464.44;;;24.26;47.36
39435;BME280;30098;51.880;-0.518;2022-08-23T08:51:57;100456.75;;;24.32;46.76
39435;BME280;30098;51.880;-0.518;2022-08-23T08:54:26;100332.72;;;23.63;46.92
39435;BME280;30098;51.880;-0.518;2022-08-23T08:56:57;100443.19;;;24.39;47.49
39435;BME280;30098;51.880;-0.518;2022-08-23T08:59:26;100437.34;;;24.41;47.06
39435;BME280;30098;51.880;-0.518;2022-08-23T09:01:53;100447.31;;;24.46;47.29
39435;BME280;30098;51.880;-0.518;2022-08-23T09:04:19;100438.47;;;24.40;47.69
39435;BME280;30098;51.880;-0.518;2022-08-23T09:17:55;100442.94;;;24.69;47.10
39435;BME280;30098;51.880;-0.518;2022-08-23T09:20:24;100439.13;;;24.74;46.63
39435;BME280;30098;51.880;-0.518;2022-08-23T09:23:06;100411.66;;;24.65;46.00
39435;BME280;30098;51.880;-0.518;2022-08-23T09:25:32;100433.09;;;24.84;46.44
39435;BME280;30098;51.880;-0.518;2022-08-23T09:27:58;100443.88;;;24.89;46.01
39435;BME280;30098;51.880;-0.518;2022-08-23T09:30:44;100436.16;;;24.95;46.08
39435;BME280;30098;51.880;-0.518;2022-08-23T09:33:20;100411.88;;;24.85;46.14
39435;BME280;30098;51.880;-0.518;2022-08-23T09:36:03;100432.09;;;25.05;45.72
39435;BME280;30098;51.880;-0.518;2022-08-23T09:38:29;100429.88;;;25.11;45.36
39435;BME280;30098;51.880;-0.518;2022-08-23T09:40:55;100433.09;;;25.13;45.73
39435;BME280;30098;51.880;-0.518;2022-08-23T09:43:23;100426.44;;;25.14;45.38
39435;BME280;30098;51.880;-0.518;2022-08-23T09:48:41;100443.59;;;25.23;45.50
39435;BME280;30098;51.880;-0.518;2022-08-23T09:53:33;100440.25;;;25.30;45.28
39435;BME280;30098;51.880;-0.518;2022-08-23T09:56:13;100444.69;;;25.34;45.00
39435;BME280;30098;51.880;-0.518;2022-08-23T09:58:43;100445.94;;;25.37;44.83
39435;BME280;30098;51.880;-0.518;2022-08-23T10:01:23;100442.16;;;25.42;45.04
39435;BME280;30098;51.880;-0.518;2022-08-23T10:06:49;100423.22;;;25.40;45.35
39435;BME280;30098;51.880;-0.518;2022-08-23T10:09:31;100417.13;;;25.34;45.65
39435;BME280;30098;51.880;-0.518;2022-08-23T10:11:59;100438.25;;;25.59;44.95
39435;BME280;30098;51.880;-0.518;2022-08-23T10:14:27;100447.41;;;25.63;45.10
39435;BME280;30098;51.880;-0.518;2022-08-23T10:17:08;100346.56;;;25.01;44.49
39435;BME280;30098;51.880;-0.518;2022-08-23T10:22:19;100434.59;;;25.71;44.53
39435;BME280;30098;51.880;-0.518;2022-08-23T10:24:49;100426.78;;;25.73;44.74
39435;BME280;30098;51.880;-0.518;2022-08-23T10:30:44;100443.16;;;25.81;44.48
39435;BME280;30098;51.880;-0.518;2022-08-23T10:33:20;100438.06;;;25.83;44.53
39435;BME280;30098;51.880;-0.518;2022-08-23T10:44:33;100437.88;;;25.92;44.37
39435;BME280;30098;51.880;-0.518;2022-08-23T10:47:37;100439.13;;;25.95;44.36
39435;BME280;30098;51.880;-0.518;2022-08-23T10:50:11;100443.13;;;25.97;44.37
39435;BME280;30098;51.880;-0.518;2022-08-23T10:52:59;100440.34;;;25.97;44.17
39435;BME280;30098;51.880;-0.518;2022-08-23T10:55:32;100440.81;;;25.99;44.04
39435;BME280;30098;51.880;-0.518;2022-08-23T10:58:23;100429.25;;;25.94;44.27
39435;BME280;30098;51.880;-0.518;2022-08-23T11:00:50;100441.69;;;26.04;44.40
39435;BME280;30098;51.880;-0.518;2022-08-23T11:03:25;100435.00;;;26.05;44.38
39435;BME280;30098;51.880;-0.518;2022-08-23T11:06:24;100429.16;;;26.06;44.67
39435;BME280;30098;51.880;-0.518;2022-08-23T11:15:08;100428.81;;;26.08;44.68
39435;BME280;30098;51.880;-0.518;2022-08-23T11:17:54;100415.09;;;25.95;44.56
39435;BME280;30098;51.880;-0.518;2022-08-23T11:25:52;100429.34;;;26.13;44.66
39435;BME280;30098;51.880;-0.518;2022-08-23T11:33:45;100425.94;;;26.20;44.39
39435;BME280;30098;51.880;-0.518;2022-08-23T11:36:20;100427.16;;;26.23;44.62
39435;BME280;30098;51.880;-0.518;2022-08-23T11:49:39;100437.38;;;26.38;44.49
39435;BME280;30098;51.880;-0.518;2022-08-23T11:53:05;100428.72;;;26.40;44.95
39435;BME280;30098;51.880;-0.518;2022-08-23T12:00:32;100428.44;;;26.45;44.34
39435;BME280;30098;51.880;-0.518;2022-08-23T12:03:27;100431.22;;;26.45;44.25
39435;BME280;30098;51.880;-0.518;2022-08-23T12:06:35;100425.31;;;26.46;44.36
39435;BME280;30098;51.880;-0.518;2022-08-23T12:09:00;100353.56;;;25.95;44.18
39435;BME280;30098;51.880;-0.518;2022-08-23T12:19:58;100427.78;;;26.52;44.74
39435;BME280;30098;51.880;-0.518;2022-08-23T12:22:27;100433.75;;;26.54;44.77
39435;BME280;30098;51.880;-0.518;2022-08-23T12:25:04;100430.63;;;26.55;44.37
39435;BME280;30098;51.880;-0.518;2022-08-23T12:30:31;100447.28;;;26.59;44.84
39435;BME280;30098;51.880;-0.518;2022-08-23T12:33:22;100446.13;;;26.60;44.84
39435;BME280;30098;51.880;-0.518;2022-08-23T12:36:20;100447.72;;;26.61;44.87
39435;BME280;30098;51.880;-0.518;2022-08-23T12:41:49;100443.09;;;26.65;45.11
39435;BME280;30098;51.880;-0.518;2022-08-23T12:44:17;100447.78;;;26.64;45.63
39435;BME280;30098;51.880;-0.518;2022-08-23T12:46:46;100447.00;;;26.64;45.57
39435;BME280;30098;51.880;-0.518;2022-08-23T12:49:34;100454.91;;;26.66;46.13
39435;BME280;30098;51.880;-0.518;2022-08-23T12:52:05;100445.09;;;26.68;46.50
39435;BME280;30098;51.880;-0.518;2022-08-23T12:54:43;100440.72;;;26.67;46.16
39435;BME280;30098;51.880;-0.518;2022-08-23T12:57:16;100440.72;;;26.67;46.14
39435;BME280;30098;51.880;-0.518;2022-08-23T13:02:39;100419.16;;;26.53;45.94
39435;BME280;30098;51.880;-0.518;2022-08-23T13:05:18;100454.63;;;26.71;45.71
39435;BME280;30098;51.880;-0.518;2022-08-23T13:07:47;100447.50;;;26.70;45.93
39435;BME280;30098;51.880;-0.518;2022-08-23T13:10:13;100456.34;;;26.75;45.81
39435;BME280;30098;51.880;-0.518;2022-08-23T13:12:41;100433.13;;;26.60;45.88
39435;BME280;30098;51.880;-0.518;2022-08-23T13:15:07;100446.88;;;26.76;45.83
39435;BME280;30098;51.880;-0.518;2022-08-23T13:17:36;100454.81;;;26.78;45.71
39435;BME280;30098;51.880;-0.518;2022-08-23T13:22:37;100445.28;;;26.75;45.93
39435;BME280;30098;51.880;-0.518;2022-08-23T13:35:28;100433.59;;;26.82;45.97
39435;BME280;30098;51.880;-0.518;2022-08-23T13:38:00;100438.75;;;26.84;45.81
39435;BME280;30098;51.880;-0.518;2022-08-23T13:40:30;100448.63;;;26.85;46.83
39435;BME280;30098;51.880;-0.518;2022-08-23T13:43:06;100423.25;;;26.79;46.92
39435;BME280;30098;51.880;-0.518;2022-08-23T13:45:35;100434.44;;;26.86;46.13
39435;BME280;30098;51.880;-0.518;2022-08-23T13:48:13;100436.50;;;26.89;46.09
39435;BME280;30098;51.880;-0.518;2022-08-23T13:50:40;100443.25;;;26.92;45.85
39435;BME280;30098;51.880;-0.518;2022-08-23T13:53:07;100436.56;;;26.93;45.99
39435;BME280;30098;51.880;-0.518;2022-08-23T13:58:16;100399.91;;;26.76;45.77
39435;BME280;30098;51.880;-0.518;2022-08-23T14:00:48;100416.06;;;26.94;45.67
39435;BME280;30098;51.880;-0.518;2022-08-23T14:03:14;100428.03;;;27.02;45.69
39435;BME280;30098;51.880;-0.518;2022-08-23T14:05:39;100434.41;;;27.06;45.63
39435;BME280;30098;51.880;-0.518;2022-08-23T14:08:04;100417.41;;;27.04;45.74
39435;BME280;30098;51.880;-0.518;2022-08-23T14:10:30;100430.94;;;27.09;45.93
39435;BME280;30098;51.880;-0.518;2022-08-23T14:12:55;100422.25;;;27.10;45.69
39435;BME280;30098;51.880;-0.518;2022-08-23T14:15:21;100416.00;;;27.14;45.29
39435;BME280;30098;51.880;-0.518;2022-08-23T14:17:49;100421.97;;;27.16;45.16
39435;BME280;30098;51.880;-0.518;2022-08-23T14:20:17;100422.78;;;27.16;44.89
39435;BME280;30098;51.880;-0.518;2022-08-23T14:22:43;100416.00;;;27.14;45.05
39435;BME280;30098;51.880;-0.518;2022-08-23T14:25:09;100419.28;;;27.19;45.06
39435;BME280;30098;51.880;-0.518;2022-08-23T14:27:40;100417.69;;;27.18;44.87
39435;BME280;30098;51.880;-0.518;2022-08-23T14:30:08;100421.66;;;27.21;44.63
39435;BME280;30098;51.880;-0.518;2022-08-23T14:32:36;100419.69;;;27.21;44.74
39435;BME280;30098;51.880;-0.518;2022-08-23T14:35:04;100414.16;;;27.21;44.32
39435;BME280;30098;51.880;-0.518;2022-08-23T14:37:30;100417.75;;;27.22;44.37
39435;BME280;30098;51.880;-0.518;2022-08-23T14:39:56;100424.06;;;27.22;44.38
39435;BME280;30098;51.880;-0.518;2022-08-23T14:42:22;100425.66;;;27.23;44.40